Time;durP1;ratioP1;P1;durP2;ratioP2;P2;SDS_P1;SDS_P2;PMS_P1;PMS_P2;Temp;Humidity;BMP_temperature;BMP_pressure;BME280_temperature;BME280_humidity;BME280_pressure;Samples;Min_cycle;Max_cycle;Signal;HPM_P1;HPM_P2
2023/10/07 00:02:12;;;;;;;3.63;3.40;;;21.00;98.60;;;;;;5012232;28;20818;-66
2023/10/07 00:04:41;;;;;;;3.57;3.37;;;21.00;98.70;;;;;;5012134;28;20529;-66
2023/10/07 00:07:10;;;;;;;4.30;3.90;;;21.00;98.70;;;;;;5010000;28;20478;-65
2023/10/07 00:09:41;;;;;;;3.93;3.73;;;21.00;98.70;;;;;;5011498;28;20545;-66
2023/10/07 00:12:13;;;;;;;7.40;3.40;;;21.00;98.70;;;;;;5011991;28;20959;-66
2023/10/07 00:14:40;;;;;;;4.80;4.50;;;21.00;98.70;;;;;;5012029;28;20451;-66
2023/10/07 00:17:12;;;;;;;4.43;4.03;;;21.00;98.70;;;;;;5007666;28;20481;-66
2023/10/07 00:19:41;;;;;;;4.47;4.17;;;21.00;98.70;;;;;;5011393;28;20464;-65
2023/10/07 00:22:09;;;;;;;3.73;3.53;;;21.00;98.70;;;;;;5006344;28;20458;-66
2023/10/07 00:24:40;;;;;;;3.67;3.57;;;21.00;98.70;;;;;;5011051;28;21181;-66
2023/10/07 00:27:18;;;;;;;3.00;2.87;;;21.00;98.70;;;;;;5008679;28;20560;-65
2023/10/07 00:29:54;;;;;;;3.10;2.90;;;21.00;98.70;;;;;;5011871;28;20452;-66
2023/10/07 00:32:26;;;;;;;4.47;3.20;;;21.00;98.70;;;;;;5006148;28;20485;-66
2023/10/07 00:34:55;;;;;;;3.97;3.40;;;21.00;98.70;;;;;;5004597;28;20465;-65
2023/10/07 00:37:24;;;;;;;3.83;3.53;;;21.00;98.70;;;;;;5009084;28;20865;-66
2023/10/07 00:39:52;;;;;;;3.83;3.50;;;21.00;98.70;;;;;;5007404;28;20458;-66
2023/10/07 00:42:19;;;;;;;4.40;4.10;;;21.00;98.70;;;;;;5010849;28;20442;-67
2023/10/07 00:44:49;;;;;;;3.37;3.10;;;20.90;98.70;;;;;;5011884;28;20453;-66
2023/10/07 00:47:19;;;;;;;3.70;3.40;;;21.00;98.70;;;;;;5008738;28;20513;-65
2023/10/07 00:49:53;;;;;;;3.87;3.67;;;20.90;98.70;;;;;;5010323;28;20454;-66
2023/10/07 00:52:32;;;;;;;3.63;3.43;;;20.90;98.70;;;;;;5011557;28;20533;-66
2023/10/07 00:55:09;;;;;;;4.50;3.23;;;20.90;98.70;;;;;;5005295;28;20468;-66
2023/10/07 00:57:37;;;;;;;3.83;3.70;;;20.90;98.70;;;;;;5010850;28;20449;-66
2023/10/07 01:00:30;;;;;;;3.80;3.50;;;20.90;98.80;;;;;;5010912;28;20945;-66
2023/10/07 01:03:12;;;;;;;3.70;3.50;;;20.90;98.70;;;;;;5000206;28;20470;-65
2023/10/07 01:05:55;;;;;;;3.57;3.37;;;20.90;98.80;;;;;;5010779;28;20461;-66
2023/10/07 01:08:27;;;;;;;3.60;3.40;;;20.90;98.80;;;;;;5014218;28;20535;-66
2023/10/07 01:11:06;;;;;;;2.80;2.70;;;20.90;98.80;;;;;;5007963;28;20442;-66
2023/10/07 01:13:35;;;;;;;4.50;4.17;;;20.90;98.90;;;;;;5013602;28;20504;-66
2023/10/07 01:16:06;;;;;;;3.80;3.50;;;20.90;98.90;;;;;;5013713;28;20456;-66
2023/10/07 01:18:38;;;;;;;3.00;2.90;;;20.90;99.50;;;;;;5012877;28;20469;-66
2023/10/07 01:21:08;;;;;;;2.93;2.73;;;20.90;98.90;;;;;;5008077;28;20538;-66
2023/10/07 01:23:36;;;;;;;4.17;3.90;;;20.90;98.90;;;;;;5008236;28;20565;-66
2023/10/07 01:26:14;;;;;;;3.53;3.33;;;20.90;98.90;;;;;;5014788;28;20454;-66
2023/10/07 01:28:43;;;;;;;3.37;3.17;;;20.90;98.80;;;;;;5014304;28;20544;-66
2023/10/07 01:31:12;;;;;;;3.50;3.20;;;20.90;98.80;;;;;;5015280;28;20452;-66
2023/10/07 01:33:41;;;;;;;3.70;3.50;;;20.90;98.80;;;;;;5013902;28;21197;-66
2023/10/07 01:36:13;;;;;;;3.60;3.40;;;20.90;98.80;;;;;;5012076;28;20542;-66
2023/10/07 01:38:44;;;;;;;4.60;3.63;;;20.90;98.80;;;;;;5012939;28;20481;-66
2023/10/07 01:41:18;;;;;;;4.30;3.67;;;20.90;98.80;;;;;;5012525;28;20453;-66
2023/10/07 01:43:56;;;;;;;3.73;3.53;;;20.90;98.80;;;;;;5022848;22;21012;-65
2023/10/07 01:46:27;;;;;;;3.47;3.33;;;20.90;98.80;;;;;;5007381;28;20504;-65
2023/10/07 01:48:57;;;;;;;4.37;4.07;;;20.90;98.80;;;;;;5007178;28;20909;-65
2023/10/07 01:51:26;;;;;;;3.60;3.40;;;20.90;98.80;;;;;;5013669;28;20541;-64
2023/10/07 01:53:56;;;;;;;4.00;3.73;;;20.90;98.80;;;;;;4999702;28;20477;-65
2023/10/07 01:56:26;;;;;;;4.03;3.73;;;20.90;98.80;;;;;;5013942;28;20457;-65
2023/10/07 01:58:54;;;;;;;3.83;3.63;;;20.90;98.80;;;;;;5006564;28;20437;-65
2023/10/07 02:01:22;;;;;;;3.60;3.40;;;20.90;98.80;;;;;;5012721;28;20880;-65
2023/10/07 02:03:50;;;;;;;4.13;3.83;;;20.90;98.80;;;;;;5013130;28;20500;-65
2023/10/07 02:06:18;;;;;;;4.00;3.80;;;20.90;98.90;;;;;;5013904;28;20812;-64
2023/10/07 02:08:46;;;;;;;3.40;3.30;;;20.90;98.90;;;;;;5013885;28;20856;-65
2023/10/07 02:11:18;;;;;;;3.77;3.57;;;20.90;99.20;;;;;;5014064;28;20541;-65
2023/10/07 02:13:46;;;;;;;3.47;3.17;;;20.90;98.90;;;;;;5010337;28;20478;-65
2023/10/07 02:16:16;;;;;;;3.87;3.67;;;20.90;98.90;;;;;;5014304;28;20448;-65
2023/10/07 02:18:44;;;;;;;3.23;3.07;;;20.90;99.00;;;;;;5009284;28;20537;-65
2023/10/07 02:21:11;;;;;;;4.67;4.00;;;20.80;98.90;;;;;;5014112;28;20933;-65
2023/10/07 02:23:40;;;;;;;3.43;3.23;;;20.90;99.00;;;;;;5010468;28;20470;-65
2023/10/07 02:26:14;;;;;;;3.57;3.27;;;20.80;98.90;;;;;;5014089;28;20912;-65
2023/10/07 02:28:43;;;;;;;2.97;2.87;;;20.80;98.90;;;;;;5013259;28;20477;-65
2023/10/07 02:31:15;;;;;;;4.17;3.80;;;20.80;98.90;;;;;;5013855;28;21011;-65
2023/10/07 02:33:42;;;;;;;3.23;3.03;;;20.90;99.00;;;;;;5013089;28;20474;-65
2023/10/07 02:36:12;;;;;;;3.40;3.20;;;20.80;99.00;;;;;;5013530;28;20454;-65
2023/10/07 02:38:42;;;;;;;4.33;4.03;;;20.80;99.00;;;;;;5012738;28;20446;-65
2023/10/07 02:41:16;;;;;;;2.73;2.53;;;20.80;99.00;;;;;;5013806;28;20505;-65
2023/10/07 02:43:48;;;;;;;2.87;2.67;;;20.80;99.40;;;;;;5009489;28;20474;-65
2023/10/07 02:46:31;;;;;;;3.20;3.10;;;20.80;99.00;;;;;;5013955;28;20476;-65
2023/10/07 02:49:04;;;;;;;2.83;2.73;;;20.80;99.10;;;;;;5008358;28;20492;-65
2023/10/07 02:51:32;;;;;;;3.20;3.10;;;20.80;99.00;;;;;;5013175;28;20549;-65
2023/10/07 02:54:05;;;;;;;3.63;3.43;;;20.80;99.10;;;;;;5012863;28;20904;-65
2023/10/07 02:56:44;;;;;;;3.87;3.53;;;20.80;99.10;;;;;;5013146;28;20461;-65
2023/10/07 02:59:33;;;;;;;3.90;3.53;;;20.80;99.10;;;;;;5012838;28;20536;-67
2023/10/07 03:02:36;;;;;;;3.00;2.80;;;20.80;99.30;;;;;;5005996;28;20525;-66
2023/10/07 03:07:50;;;;;;;3.57;3.37;;;20.80;99.00;;;;;;5012010;28;20969;-64
2023/10/07 03:10:30;;;;;;;5.00;3.23;;;20.80;98.90;;;;;;5012604;28;20544;-66
2023/10/07 03:12:57;;;;;;;4.30;3.33;;;20.80;98.90;;;;;;5006119;28;20862;-66
2023/10/07 03:15:40;;;;;;;3.50;3.30;;;20.80;98.90;;;;;;5012435;28;20465;-65
2023/10/07 03:18:20;;;;;;;2.73;2.63;;;20.80;98.90;;;;;;5006297;28;20450;-65
2023/10/07 03:20:48;;;;;;;3.80;3.60;;;20.80;98.80;;;;;;5011828;28;20568;-66
2023/10/07 03:23:15;;;;;;;4.40;4.00;;;20.80;98.80;;;;;;5012032;28;21047;-66
2023/10/07 03:26:05;;;;;;;3.80;3.60;;;20.80;98.80;;;;;;5011241;28;20561;-65
2023/10/07 03:28:35;;;;;;;5.27;4.87;;;20.80;98.80;;;;;;5011593;28;20500;-66
2023/10/07 03:31:08;;;;;;;5.10;3.80;;;20.80;98.80;;;;;;5012905;28;20533;-65
2023/10/07 03:33:44;;;;;;;3.43;3.30;;;20.80;98.70;;;;;;5011237;28;20493;-65
2023/10/07 03:36:30;;;;;;;3.60;3.40;;;20.80;98.70;;;;;;5012407;28;20452;-66
2023/10/07 03:39:10;;;;;;;5.53;3.67;;;20.80;98.80;;;;;;5002886;28;20445;-66
2023/10/07 03:41:41;;;;;;;3.27;2.97;;;20.80;98.70;;;;;;5012515;28;20810;-66
2023/10/07 03:44:08;;;;;;;3.30;3.10;;;20.80;98.70;;;;;;5011783;28;20493;-66
2023/10/07 03:46:38;;;;;;;3.20;3.00;;;20.80;98.70;;;;;;5012111;28;20881;-65
2023/10/07 03:49:06;;;;;;;3.80;3.60;;;20.80;98.70;;;;;;5011934;28;20548;-66
2023/10/07 03:51:35;;;;;;;3.50;3.30;;;20.80;98.80;;;;;;5011429;28;20512;-66
2023/10/07 03:54:09;;;;;;;4.03;3.73;;;20.80;98.70;;;;;;5011951;28;20470;-67
2023/10/07 03:56:37;;;;;;;4.10;3.23;;;20.80;98.70;;;;;;5011890;28;20453;-66
2023/10/07 03:59:05;;;;;;;3.23;3.10;;;20.80;98.70;;;;;;5011761;28;20957;-66
2023/10/07 04:01:32;;;;;;;3.73;3.53;;;20.80;98.70;;;;;;5011983;28;20466;-66
2023/10/07 04:04:00;;;;;;;3.40;3.30;;;20.80;98.70;;;;;;5003555;28;20500;-66
2023/10/07 04:06:34;;;;;;;4.17;3.87;;;20.80;98.70;;;;;;5011627;28;20876;-64
2023/10/07 04:09:07;;;;;;;3.27;3.17;;;20.80;98.70;;;;;;5003217;28;20547;-64
2023/10/07 04:11:36;;;;;;;3.80;3.50;;;20.80;98.70;;;;;;5012001;28;20446;-65
2023/10/07 04:14:07;;;;;;;3.50;3.30;;;20.80;98.70;;;;;;5011343;28;20481;-65
2023/10/07 04:16:36;;;;;;;3.47;3.27;;;20.80;98.70;;;;;;5008075;28;20817;-65
2023/10/07 04:19:30;;;;;;;3.30;3.20;;;20.80;98.70;;;;;;5011717;28;20454;-64
2023/10/07 04:21:57;;;;;;;3.57;3.37;;;20.80;98.70;;;;;;5011278;28;20461;-65
2023/10/07 04:24:28;;;;;;;3.50;3.33;;;20.80;98.70;;;;;;5011381;28;20474;-64
2023/10/07 04:27:03;;;;;;;4.00;3.70;;;20.80;98.70;;;;;;5011434;28;20446;-65
2023/10/07 04:29:31;;;;;;;4.20;3.90;;;20.80;98.70;;;;;;5011543;28;20916;-64
2023/10/07 04:32:05;;;;;;;3.80;3.60;;;20.80;98.80;;;;;;5003761;28;20442;-64
2023/10/07 04:34:46;;;;;;;4.03;3.83;;;20.80;98.80;;;;;;5004688;28;20862;-65
2023/10/07 04:37:14;;;;;;;3.87;3.67;;;20.80;98.80;;;;;;4999414;28;20939;-64
2023/10/07 04:40:33;;;;;;;3.80;3.60;;;20.80;98.80;;;;;;5006994;28;20507;-65
2023/10/07 04:43:00;;;;;;;3.63;3.43;;;20.80;98.80;;;;;;5010989;28;20438;-65
2023/10/07 04:45:37;;;;;;;3.87;3.60;;;20.80;98.80;;;;;;5011432;28;20445;-64
2023/10/07 04:48:23;;;;;;;3.30;3.20;;;20.80;98.90;;;;;;5004147;28;20557;-65
2023/10/07 04:51:03;;;;;;;3.07;2.97;;;20.80;98.90;;;;;;5009970;28;20965;-65
2023/10/07 04:53:37;;;;;;;4.20;3.90;;;20.80;98.90;;;;;;5011112;28;20484;-65
2023/10/07 04:56:06;;;;;;;3.60;3.40;;;20.80;98.90;;;;;;5003673;28;21011;-64
2023/10/07 04:58:32;;;;;;;3.77;3.53;;;20.80;98.90;;;;;;5011060;28;20434;-64
2023/10/07 05:01:06;;;;;;;3.10;3.00;;;20.80;98.90;;;;;;5002865;28;20863;-64
2023/10/07 05:03:33;;;;;;;3.33;3.13;;;20.80;98.90;;;;;;5010954;28;20717;-64
2023/10/07 05:06:04;;;;;;;4.23;4.03;;;20.80;98.90;;;;;;5003591;28;20800;-64
2023/10/07 05:08:30;;;;;;;3.80;3.57;;;20.80;98.90;;;;;;5009140;28;20492;-64
2023/10/07 05:11:04;;;;;;;4.00;3.70;;;20.80;98.90;;;;;;5010494;28;20458;-64
2023/10/07 05:13:32;;;;;;;4.47;4.07;;;20.80;98.90;;;;;;5011262;28;20219;-65
2023/10/07 05:15:59;;;;;;;3.87;3.57;;;20.80;98.90;;;;;;5002234;28;20485;-64
2023/10/07 05:18:25;;;;;;;3.53;3.43;;;20.80;98.90;;;;;;5008648;28;20450;-64
2023/10/07 05:20:52;;;;;;;3.60;3.40;;;20.80;98.90;;;;;;5010418;28;20496;-64
2023/10/07 05:23:21;;;;;;;3.50;3.23;;;20.80;98.90;;;;;;5007528;28;20477;-65
2023/10/07 05:25:50;;;;;;;3.40;3.20;;;20.80;98.90;;;;;;5009832;28;20979;-65
2023/10/07 05:28:20;;;;;;;3.97;3.67;;;20.80;98.90;;;;;;5010787;28;20479;-65
2023/10/07 05:30:51;;;;;;;3.70;3.40;;;20.80;98.90;;;;;;5010706;28;20464;-64
2023/10/07 05:33:20;;;;;;;3.70;3.50;;;20.80;99.00;;;;;;5010040;28;20509;-64
2023/10/07 05:35:49;;;;;;;3.20;3.00;;;20.80;99.00;;;;;;5011250;28;20454;-65
2023/10/07 05:38:17;;;;;;;3.53;3.30;;;20.80;99.00;;;;;;5009695;28;20512;-64
2023/10/07 05:40:46;;;;;;;3.80;3.47;;;20.80;99.00;;;;;;5009114;28;20474;-65
2023/10/07 05:43:13;;;;;;;3.63;3.33;;;20.80;99.00;;;;;;5010930;28;20501;-65
2023/10/07 05:45:40;;;;;;;4.17;3.57;;;20.80;99.00;;;;;;5010872;28;20486;-65
2023/10/07 05:48:10;;;;;;;3.53;3.33;;;20.80;99.10;;;;;;5010473;28;20509;-65
2023/10/07 05:50:38;;;;;;;3.50;3.20;;;20.80;99.10;;;;;;5010426;28;20539;-65
2023/10/07 05:53:05;;;;;;;4.57;4.33;;;20.80;99.10;;;;;;5013071;28;20446;-65
2023/10/07 05:55:33;;;;;;;3.70;3.27;;;20.80;99.10;;;;;;5012916;28;20528;-64
2023/10/07 05:58:02;;;;;;;3.60;3.30;;;20.80;99.20;;;;;;5014549;28;20453;-65
2023/10/07 06:00:31;;;;;;;4.60;3.50;;;20.70;99.10;;;;;;5014309;28;20454;-64
2023/10/07 06:03:02;;;;;;;3.63;3.43;;;20.80;99.20;;;;;;5013881;28;20457;-65
2023/10/07 06:05:29;;;;;;;4.27;3.90;;;20.70;99.10;;;;;;5011830;28;20504;-65
2023/10/07 06:07:57;;;;;;;4.70;4.30;;;20.80;99.20;;;;;;5014233;28;20469;-65
2023/10/07 06:10:24;;;;;;;3.70;3.50;;;20.70;99.10;;;;;;5014015;28;20469;-64
2023/10/07 06:12:51;;;;;;;4.60;4.30;;;20.70;99.20;;;;;;5013316;28;20481;-64
2023/10/07 06:15:20;;;;;;;3.70;3.40;;;20.80;99.30;;;;;;5013936;28;20490;-64
2023/10/07 06:17:47;;;;;;;3.80;3.60;;;20.70;99.20;;;;;;5014208;28;20438;-64
2023/10/07 06:20:15;;;;;;;3.67;3.40;;;20.80;99.30;;;;;;5009807;28;20525;-64
2023/10/07 06:22:46;;;;;;;3.67;3.47;;;20.70;99.20;;;;;;5013882;28;20446;-65
2023/10/07 06:25:14;;;;;;;3.43;3.33;;;20.70;99.20;;;;;;5013516;28;20564;-65
2023/10/07 06:27:43;;;;;;;3.40;3.20;;;20.80;99.30;;;;;;5013622;28;20462;-65
2023/10/07 06:30:12;;;;;;;3.37;3.17;;;20.70;99.20;;;;;;5013379;28;21016;-65
2023/10/07 06:32:44;;;;;;;3.33;3.23;;;20.70;99.20;;;;;;5013251;28;20489;-65
2023/10/07 06:35:14;;;;;;;3.90;3.63;;;20.70;99.30;;;;;;5013380;28;20969;-64
2023/10/07 06:37:42;;;;;;;4.20;3.90;;;20.80;99.30;;;;;;5013383;28;20468;-65
2023/10/07 06:43:04;;;;;;;3.33;3.13;;;20.80;99.30;;;;;;5162221;27;20515;-65
2023/10/07 06:45:35;;;;;;;3.63;3.43;;;20.70;99.30;;;;;;5141344;27;20436;-65
2023/10/07 06:48:05;;;;;;;3.53;3.33;;;20.80;99.40;;;;;;5137786;27;20473;-66
2023/10/07 06:50:33;;;;;;;3.57;3.40;;;20.70;99.40;;;;;;5138285;27;20950;-66
2023/10/07 06:53:01;;;;;;;3.77;3.57;;;20.70;99.40;;;;;;5134595;27;20804;-65
2023/10/07 06:55:35;;;;;;;3.73;3.53;;;20.70;99.40;;;;;;5141238;27;20540;-66
2023/10/07 06:58:04;;;;;;;4.03;3.83;;;20.70;99.40;;;;;;5137683;27;20445;-64
2023/10/07 07:00:47;;;;;;;3.90;3.70;;;20.70;99.40;;;;;;5128970;27;21003;-66
2023/10/07 07:03:14;;;;;;;4.93;4.60;;;20.70;99.40;;;;;;5137187;27;20492;-65
2023/10/07 07:05:41;;;;;;;4.20;3.93;;;20.70;99.40;;;;;;5138482;27;20467;-66
2023/10/07 07:08:10;;;;;;;3.23;3.13;;;20.70;99.40;;;;;;5137205;27;20535;-65
2023/10/07 07:10:37;;;;;;;3.67;3.40;;;20.70;99.50;;;;;;5132702;27;20527;-65
2023/10/07 07:13:12;;;;;;;3.40;3.20;;;20.70;99.50;;;;;;5129277;27;20920;-66
2023/10/07 07:15:41;;;;;;;3.60;3.50;;;20.70;99.40;;;;;;5134516;27;20436;-66
2023/10/07 07:18:14;;;;;;;3.47;3.30;;;20.70;99.50;;;;;;5137236;27;20447;-65
2023/10/07 07:20:55;;;;;;;3.83;3.53;;;20.70;99.50;;;;;;5134981;27;20435;-66
2023/10/07 07:23:30;;;;;;;4.03;3.77;;;20.70;99.50;;;;;;5133075;27;21395;-66
2023/10/07 07:26:03;;;;;;;3.90;3.80;;;20.70;99.50;;;;;;5137227;27;20439;-66
2023/10/07 07:28:31;;;;;;;3.00;2.80;;;20.70;99.50;;;;;;5137730;27;20435;-66
2023/10/07 07:30:57;;;;;;;3.77;3.57;;;20.70;99.40;;;;;;5135191;27;20488;-65
2023/10/07 07:33:28;;;;;;;3.73;3.53;;;20.70;99.40;;;;;;5125762;27;20457;-66
2023/10/07 07:35:57;;;;;;;4.23;3.93;;;20.80;99.50;;;;;;5138090;27;20505;-66
2023/10/07 07:38:29;;;;;;;4.20;4.00;;;20.70;99.60;;;;;;5140346;27;20439;-65
2023/10/07 07:41:05;;;;;;;3.33;2.97;;;20.70;99.60;;;;;;5137557;27;20990;-65
2023/10/07 07:43:35;;;;;;;3.50;3.33;;;20.70;99.60;;;;;;5149681;22;20506;-68
2023/10/07 07:46:28;;;;;;;5.10;3.87;;;20.70;99.60;;;;;;5063352;28;20856;-67
2023/10/07 07:49:04;;;;;;;3.20;3.10;;;20.70;99.60;;;;;;5061547;28;20830;-67
2023/10/07 07:51:37;;;;;;;3.07;2.97;;;20.70;99.70;;;;;;5066803;28;20454;-67
2023/10/07 07:54:06;;;;;;;4.37;4.17;;;20.70;99.90;;;;;;5052500;28;20471;-67
2023/10/07 07:56:34;;;;;;;4.03;3.83;;;20.70;99.70;;;;;;5030246;28;20445;-68
2023/10/07 07:59:13;;;;;;;4.23;3.93;;;20.70;99.80;;;;;;5044508;28;20901;-67
2023/10/07 08:01:44;;;;;;;3.77;3.57;;;20.70;99.90;;;;;;5035812;28;20473;-67
2023/10/07 08:04:17;;;;;;;3.77;3.57;;;20.70;99.90;;;;;;5044737;28;20526;-67
2023/10/07 08:06:45;;;;;;;4.50;4.20;;;20.70;99.90;;;;;;5039820;28;20560;-67
2023/10/07 08:09:12;;;;;;;3.53;3.33;;;20.70;99.90;;;;;;5045198;28;20491;-67
2023/10/07 08:11:40;;;;;;;4.20;4.00;;;20.70;99.90;;;;;;5038871;28;20441;-67
2023/10/07 08:14:10;;;;;;;4.37;4.17;;;20.70;99.90;;;;;;5044200;28;20534;-67
2023/10/07 08:16:50;;;;;;;3.90;3.67;;;20.70;99.80;;;;;;5035498;28;20485;-67
2023/10/07 08:19:20;;;;;;;3.83;3.50;;;20.70;99.90;;;;;;5030570;28;20454;-65
2023/10/07 08:21:51;;;;;;;4.50;4.20;;;20.80;99.90;;;;;;5039409;28;20491;-66
2023/10/07 08:24:20;;;;;;;6.07;4.37;;;20.90;99.90;;;;;;5045167;28;20521;-71
2023/10/07 08:26:49;;;;;;;6.83;5.03;;;20.90;99.90;;;;;;5029935;28;20543;-69
2023/10/07 08:29:32;;;;;;;11.00;6.10;;;21.00;99.90;;;;;;5040557;28;20441;-66
2023/10/07 08:32:10;;;;;;;9.30;5.60;;;21.10;99.90;;;;;;5037756;28;20456;-66
2023/10/07 08:34:37;;;;;;;9.63;5.47;;;21.10;99.90;;;;;;5030272;28;20473;-66
2023/10/07 08:37:08;;;;;;;7.27;5.03;;;21.10;99.90;;;;;;5043870;28;20451;-66
2023/10/07 08:39:44;;;;;;;5.20;4.70;;;21.10;99.90;;;;;;5038161;28;20546;-66
2023/10/07 08:42:24;;;;;;;6.13;5.43;;;21.00;99.90;;;;;;5022805;28;20476;-70
2023/10/07 08:44:58;;;;;;;8.70;4.90;;;21.10;99.90;;;;;;5043291;28;20499;-66
2023/10/07 08:47:26;;;;;;;8.33;5.10;;;21.20;99.90;;;;;;5037363;28;20543;-67
2023/10/07 08:49:56;;;;;;;5.53;5.00;;;21.20;99.90;;;;;;5042687;28;20919;-67
2023/10/07 08:52:28;;;;;;;9.70;5.00;;;21.20;99.90;;;;;;5037846;28;20444;-67
2023/10/07 08:54:55;;;;;;;5.70;5.13;;;21.20;99.90;;;;;;5037299;28;20514;-68
2023/10/07 08:57:23;;;;;;;5.43;4.67;;;21.20;99.90;;;;;;5047002;28;20471;-67
2023/10/07 08:59:52;;;;;;;7.17;5.20;;;21.20;99.90;;;;;;5043708;28;20444;-67
2023/10/07 09:02:30;;;;;;;8.13;4.70;;;21.20;99.90;;;;;;5040824;28;20477;-68
2023/10/07 09:04:58;;;;;;;7.70;4.67;;;21.20;99.90;;;;;;5048244;28;20467;-68
2023/10/07 09:07:31;;;;;;;5.30;4.80;;;21.20;99.90;;;;;;5040860;28;20524;-68
2023/10/07 09:10:09;;;;;;;5.90;4.80;;;21.20;99.90;;;;;;5040965;28;20448;-68
2023/10/07 09:12:45;;;;;;;4.40;4.00;;;21.20;99.90;;;;;;5048381;28;20781;-68
2023/10/07 09:15:20;;;;;;;3.93;3.70;;;21.20;99.90;;;;;;5033317;28;20468;-68
2023/10/07 09:17:49;;;;;;;5.27;4.33;;;21.20;99.90;;;;;;5041260;28;20577;-68
2023/10/07 09:20:17;;;;;;;4.17;3.97;;;21.20;99.90;;;;;;5047989;28;20479;-67
2023/10/07 09:22:46;;;;;;;3.73;3.40;;;21.20;99.90;;;;;;5040497;28;20499;-68
2023/10/07 09:25:17;;;;;;;4.50;4.13;;;21.20;99.90;;;;;;5036913;28;20998;-67
2023/10/07 09:27:54;;;;;;;5.23;4.63;;;21.20;99.90;;;;;;5039610;28;20510;-67
2023/10/07 09:33:17;;;;;;;4.63;4.30;;;21.20;99.90;;;;;;5087402;28;20922;-67
2023/10/07 09:35:46;;;;;;;6.57;4.20;;;21.20;99.90;;;;;;5068535;28;20455;-66
2023/10/07 09:38:26;;;;;;;7.70;4.00;;;21.20;99.90;;;;;;5066663;28;20450;-67
2023/10/07 09:43:37;;;;;;;6.13;4.10;;;21.30;99.90;;;;;;5061982;28;20220;-71
2023/10/07 09:46:04;;;;;;;3.90;3.60;;;21.40;99.90;;;;;;5068843;28;20455;-73
2023/10/07 09:48:33;;;;;;;5.80;4.10;;;21.50;99.90;;;;;;5069934;28;20533;-70
2023/10/07 09:51:02;;;;;;;5.17;4.80;;;21.40;99.90;;;;;;5070017;28;20444;-69
2023/10/07 09:53:49;;;;;;;4.73;4.43;;;21.40;99.90;;;;;;5068442;28;20872;-69
2023/10/07 09:56:33;;;;;;;6.20;3.40;;;21.40;99.90;;;;;;5060102;28;20435;-70
2023/10/07 09:59:15;;;;;;;3.10;3.00;;;21.40;99.90;;;;;;5068299;28;20193;-70
2023/10/07 10:02:05;;;;;;;3.83;3.20;;;21.50;99.90;;;;;;5068566;28;20436;-70
2023/10/07 10:04:49;;;;;;;5.93;3.70;;;21.60;99.90;;;;;;5062808;28;20476;-70
2023/10/07 10:07:44;;;;;;;6.37;3.80;;;21.60;99.90;;;;;;5061061;28;20435;-69
2023/10/07 10:10:14;;;;;;;4.00;3.70;;;21.60;99.90;;;;;;5041024;28;20432;-69
2023/10/07 10:12:56;;;;;;;3.40;3.20;;;21.60;99.90;;;;;;5067950;28;20475;-68
2023/10/07 10:15:52;;;;;;;3.60;3.30;;;21.60;99.90;;;;;;5063707;28;20946;-69
2023/10/07 10:18:40;;;;;;;4.10;3.80;;;21.60;99.90;;;;;;5061250;28;20447;-70
2023/10/07 10:21:13;;;;;;;4.40;3.40;;;21.60;99.90;;;;;;5067001;28;20516;-73
2023/10/07 10:23:44;;;;;;;4.87;4.57;;;21.70;99.90;;;;;;5068655;28;20216;-69
2023/10/07 10:26:20;;;;;;;4.63;4.23;;;21.80;99.90;;;;;;5062875;28;20516;-66
2023/10/07 10:28:59;;;;;;;3.87;3.57;;;21.80;99.90;;;;;;5068213;28;20447;-69
2023/10/07 10:31:32;;;;;;;5.00;4.60;;;21.90;99.90;;;;;;5068030;28;20521;-67
2023/10/07 10:34:01;;;;;;;4.10;3.90;;;21.90;99.90;;;;;;5067657;28;20456;-73
2023/10/07 10:36:31;;;;;;;4.70;4.40;;;21.90;99.90;;;;;;5067815;28;20478;-70
2023/10/07 10:39:00;;;;;;;3.97;3.77;;;21.80;99.90;;;;;;5067693;28;20478;-71
2023/10/07 10:41:28;;;;;;;4.77;4.33;;;21.90;99.90;;;;;;5068106;28;20439;-68
2023/10/07 10:44:06;;;;;;;3.33;3.05;;;21.90;99.90;;;;;;5058413;28;20454;-67
2023/10/07 10:46:44;;;;;;;3.80;3.50;;;21.90;99.90;;;;;;5055418;28;20201;-63
2023/10/07 10:49:12;;;;;;;5.63;3.73;;;21.90;99.90;;;;;;5054873;28;21132;-65
2023/10/07 10:51:55;;;;;;;4.17;3.87;;;21.90;99.90;;;;;;5054700;28;20484;-67
2023/10/07 10:54:26;;;;;;;3.87;3.57;;;21.90;99.90;;;;;;5047306;28;20916;-67
2023/10/07 10:56:57;;;;;;;4.80;3.27;;;21.90;99.90;;;;;;5054171;28;20447;-63
2023/10/07 10:59:42;;;;;;;3.70;3.40;;;21.90;99.90;;;;;;5054360;28;20877;-68
2023/10/07 11:02:17;;;;;;;3.57;3.37;;;22.00;99.90;;;;;;5053999;28;20450;-65
2023/10/07 11:04:45;;;;;;;2.80;2.70;;;22.00;99.90;;;;;;5052855;28;20547;-63
2023/10/07 11:07:14;;;;;;;4.40;3.00;;;22.00;99.90;;;;;;5054862;28;20540;-63
2023/10/07 11:09:42;;;;;;;3.50;3.30;;;22.00;99.90;;;;;;5054388;28;20440;-65
2023/10/07 11:12:12;;;;;;;4.77;3.17;;;22.00;99.90;;;;;;5053986;28;21037;-65
2023/10/07 11:14:40;;;;;;;3.50;3.20;;;22.00;99.90;;;;;;5053258;28;20868;-63
2023/10/07 11:17:09;;;;;;;4.13;3.03;;;21.90;99.90;;;;;;5053878;28;20445;-67
2023/10/07 11:19:41;;;;;;;3.57;3.37;;;21.90;99.90;;;;;;5054120;28;20819;-65
2023/10/07 11:22:19;;;;;;;3.50;3.20;;;21.90;99.90;;;;;;5053876;28;20928;-64
2023/10/07 11:24:48;;;;;;;3.27;2.97;;;21.90;99.90;;;;;;5053924;28;20476;-65
2023/10/07 11:27:15;;;;;;;2.63;2.53;;;21.90;99.90;;;;;;5045872;28;20445;-66
2023/10/07 11:29:43;;;;;;;3.30;2.90;;;22.00;99.90;;;;;;5053575;28;20468;-65
2023/10/07 11:32:12;;;;;;;3.73;3.43;;;22.00;99.90;;;;;;5053155;28;20530;-65
2023/10/07 11:34:40;;;;;;;3.03;2.80;;;22.00;99.90;;;;;;5052862;28;20472;-64
2023/10/07 11:37:14;;;;;;;3.70;2.83;;;22.00;99.90;;;;;;5053355;28;20471;-65
2023/10/07 11:39:46;;;;;;;2.90;2.70;;;22.00;99.90;;;;;;5053439;28;20445;-64
2023/10/07 11:42:17;;;;;;;3.53;3.10;;;22.00;99.90;;;;;;5053298;28;20492;-64
2023/10/07 11:44:52;;;;;;;5.07;3.30;;;22.00;99.90;;;;;;5053094;28;20490;-64
2023/10/07 11:47:20;;;;;;;6.00;3.03;;;22.00;99.90;;;;;;5045978;28;20825;-65
2023/10/07 11:49:50;;;;;;;2.60;2.40;;;22.00;99.90;;;;;;5052998;28;20440;-65
2023/10/07 11:52:19;;;;;;;3.13;2.83;;;22.10;99.90;;;;;;5045287;28;20904;-66
2023/10/07 11:54:48;;;;;;;2.87;2.67;;;22.10;99.90;;;;;;5051884;28;20508;-63
2023/10/07 11:57:19;;;;;;;11.85;11.30;;;22.20;99.80;;;;;;5048984;28;20440;-67
2023/10/07 11:59:47;;;;;;;15.23;14.63;;;22.20;99.60;;;;;;5052932;28;20232;-67
2023/10/07 12:02:18;;;;;;;14.77;14.17;;;22.20;99.20;;;;;;5053092;28;20472;-66
2023/10/07 12:04:50;;;;;;;16.03;15.50;;;22.30;99.10;;;;;;5052938;28;20986;-67
2023/10/07 12:07:20;;;;;;;16.40;15.80;;;22.20;99.10;;;;;;5045433;28;20566;-66
2023/10/07 12:09:48;;;;;;;17.60;16.80;;;22.20;99.00;;;;;;5053363;28;20890;-64
2023/10/07 12:12:17;;;;;;;16.60;15.70;;;22.20;99.30;;;;;;5051889;28;20480;-67
2023/10/07 12:14:47;;;;;;;14.83;14.40;;;22.10;99.80;;;;;;5052539;28;20550;-68
2023/10/07 12:17:24;;;;;;;15.67;15.17;;;22.20;99.30;;;;;;5052937;28;20502;-68
2023/10/07 12:19:53;;;;;;;17.17;16.67;;;22.20;99.20;;;;;;5049822;28;20911;-66
2023/10/07 12:22:21;;;;;;;15.00;14.47;;;22.20;99.30;;;;;;5052250;28;20986;-63
2023/10/07 12:24:49;;;;;;;14.77;14.27;;;22.10;99.70;;;;;;5052338;28;20991;-66
2023/10/07 12:27:18;;;;;;;15.20;14.60;;;22.10;99.50;;;;;;5044534;28;20475;-66
2023/10/07 12:29:46;;;;;;;14.57;14.10;;;22.10;99.60;;;;;;5052428;28;20441;-66
2023/10/07 12:32:16;;;;;;;15.00;14.40;;;22.10;99.70;;;;;;5051683;28;20563;-65
2023/10/07 12:34:47;;;;;;;16.20;15.60;;;22.00;99.80;;;;;;5052281;28;20507;-66
2023/10/07 12:37:17;;;;;;;15.23;14.70;;;22.00;99.90;;;;;;5052327;28;20554;-66
2023/10/07 12:39:49;;;;;;;15.10;14.60;;;21.90;99.90;;;;;;5052321;28;20531;-65
2023/10/07 12:42:16;;;;;;;15.07;14.50;;;21.90;99.90;;;;;;5047837;28;20538;-65
2023/10/07 12:44:43;;;;;;;16.57;15.93;;;22.00;99.90;;;;;;5051794;28;20476;-66
2023/10/07 12:47:17;;;;;;;15.93;15.30;;;21.90;99.90;;;;;;5051800;28;20480;-66
2023/10/07 12:49:49;;;;;;;16.50;15.67;;;21.90;99.90;;;;;;5051371;28;20471;-65
2023/10/07 12:52:23;;;;;;;15.63;15.13;;;21.90;99.90;;;;;;5050946;28;20504;-65
2023/10/07 12:54:53;;;;;;;14.80;14.20;;;22.00;99.90;;;;;;5051985;28;20535;-66
2023/10/07 12:57:27;;;;;;;14.83;14.23;;;22.00;99.90;;;;;;5042621;28;20444;-65
2023/10/07 12:59:55;;;;;;;14.90;14.40;;;22.00;99.90;;;;;;5050806;28;20527;-66
2023/10/07 13:02:28;;;;;;;15.77;14.43;;;22.10;99.90;;;;;;5081989;28;20536;-66
2023/10/07 13:04:58;;;;;;;15.13;14.13;;;22.00;99.90;;;;;;5051259;28;20468;-66
2023/10/07 13:07:29;;;;;;;15.50;14.80;;;22.00;99.90;;;;;;5051747;28;20823;-66
2023/10/07 13:10:00;;;;;;;16.10;15.37;;;22.00;99.90;;;;;;5051353;28;20794;-66
2023/10/07 13:12:32;;;;;;;17.00;15.93;;;22.00;99.90;;;;;;5051142;28;20484;-66
2023/10/07 13:15:00;;;;;;;15.43;14.93;;;22.00;99.90;;;;;;5051113;28;20464;-66
2023/10/07 13:17:28;;;;;;;15.67;15.17;;;22.00;99.80;;;;;;5051036;28;20468;-66
2023/10/07 13:19:56;;;;;;;15.07;14.47;;;22.00;99.80;;;;;;5051237;28;20513;-66
2023/10/07 13:22:30;;;;;;;15.90;15.43;;;22.00;99.80;;;;;;5050973;28;20456;-66